Sun Princess — ZCBU6 — position and weather

sailwx.info

Track history (hours):
 
Tides and Currents Weather Stations Pressure Air Temp Water Temp Dewpoint Dewpoint Depression Visibility Wind Speed Wind Dir Waves Ship Positions

Sun Princess

Operator: Princess Cruises

Last reported at 2018-Feb-18 19:54 UTC. Time now 2018-Feb-19 10:18 UTC.
Position S 33°52' E 151°13'.

Length 261.3 m; beam 32.3 m; draft 8.1 m.

Type: Passenger vessel. MMSI: 310438000.

Date/timePositionNaut miles runAvg speedWind from/ knotsBaromVisibWave heightAir tempDewpointWater temp
2018-Feb-18 19:54S 33°52' E 151°13'0 0.0
2018-Feb-18 19:19S 33°52' E 151°13'1 3.1
2018-Feb-18 18:51S 33°51' E 151°14'3 9.9
2018-Feb-18 18:30S 33°50' E 151°18'5 9.4
2018-Feb-18 18:00S 33°53' E 151°22'612.6
2018-Feb-18 17:30S 33°59' E 151°23'713.6
2018-Feb-18 17:00S 34°06' E 151°22'712.9
2018-Feb-18 16:30S 34°12' E 151°21'912.6
2018-Feb-18 15:49S 34°21' E 151°21'1213.1
2018-Feb-18 14:55S 34°32' E 151°17'612.8
2018-Feb-18 14:29S 34°38' E 151°14'3213.2
2018-Feb-18 12:03S 35°09' E 151°06'213.4
2018-Feb-18 11:53S 35°11' E 151°06'613.5
2018-Feb-18 11:28S 35°17' E 151°04'813.5
2018-Feb-18 10:54S 35°24' E 151°01'1217.4
2018-Feb-18 10:12S 35°35' E 150°57'417.7
2018-Feb-18 10:00S 35°39' E 150°56'917.7
2018-Feb-18 09:30S 35°47' E 150°53'917.8
2018-Feb-18 09:00S 35°56' E 150°50'918.1
2018-Feb-18 08:30S 36°05' E 150°47'11917.0
2018-Feb-18 01:30S 37°59' E 150°06'13918.5
2018-Feb-17 18:00S 40°12' E 149°12'19416.9 280 / 271011.110.8 18.017.219.8
2018-Feb-17 06:31S 43°15' E 147°45'217.5
2018-Feb-17 06:26S 43°14' E 147°43'2 0.1
2018-Feb-16 06:20S 43°13' E 147°41'144 7.8
2018-Feb-15 11:56S 40°53' E 148°28'1117.1
2018-Feb-15 11:18S 40°45' E 148°19'517.3
2018-Feb-15 11:00S 40°42' E 148°13'815.9
2018-Feb-15 10:30S 40°40' E 148°03'816.6
2018-Feb-15 10:00S 40°39' E 147°52'917.6
2018-Feb-15 09:30S 40°40' E 147°41'918.1
2018-Feb-15 09:00S 40°42' E 147°29'918.5
2018-Feb-15 08:30S 40°45' E 147°17'918.4
2018-Feb-15 08:00S 40°47' E 147°05'918.4
2018-Feb-15 07:30S 40°49' E 146°54'918.2
2018-Feb-15 07:00S 40°51' E 146°42'918.2
2018-Feb-15 06:30S 40°54' E 146°30'918.0
2018-Feb-15 06:00S 40°56' E 146°19'917.2
2018-Feb-15 05:30S 40°58' E 146°08'815.5
2018-Feb-15 05:00S 41°01' E 145°58'3 4.0
2018-Feb-15 04:11S 41°03' E 145°55'0 0.0
2018-Feb-15 03:50S 41°03' E 145°55'0 0.0
2018-Feb-15 02:53S 41°03' E 145°55'0 0.0
2018-Feb-15 02:29S 41°03' E 145°55'0 0.0
2018-Feb-15 01:59S 41°03' E 145°55'0 0.0
2018-Feb-15 01:29S 41°03' E 145°55'0 0.0
2018-Feb-15 00:59S 41°03' E 145°55'0 0.0
2018-Feb-15 00:29S 41°03' E 145°55'0 0.0
2018-Feb-14 23:59S 41°03' E 145°55'0 0.1
2018-Feb-14 23:29S 41°03' E 145°55'0 0.1
2018-Feb-14 22:56S 41°03' E 145°55'0 0.0
2018-Feb-14 22:30S 41°03' E 145°55'1 1.3
2018-Feb-14 22:01S 41°03' E 145°56'2 4.5
2018-Feb-14 21:28S 41°01' E 145°58'612.6
2018-Feb-14 21:00S 40°57' E 146°03'816.6
2018-Feb-14 20:30S 40°50' E 146°09'816.0
2018-Feb-14 20:00S 40°44' E 146°15'815.8
2018-Feb-14 19:30S 40°38' E 146°22'815.6
2018-Feb-14 19:00S 40°31' E 146°27'816.3
2018-Feb-14 18:30S 40°24' E 146°32'816.0
2018-Feb-14 18:00S 40°17' E 146°38'714.6
2018-Feb-14 17:30S 40°11' E 146°43'713.9
2018-Feb-14 17:01S 40°05' E 146°48'18311.6
2018-Feb-14 01:17S 38°05' E 149°46'619.6
2018-Feb-14 00:59S 38°00' E 149°50'919.4
2018-Feb-14 00:30S 37°53' E 149°58'1019.2
2018-Feb-14 00:00S 37°46' E 150°05'243 8.2
2018-Feb-12 18:11S 33°50' E 151°19'312.2
2018-Feb-12 17:58S 33°50' E 151°22'612.3
2018-Feb-12 17:30S 33°46' E 151°28'714.1
2018-Feb-12 17:00S 33°41' E 151°34'714.0
2018-Feb-12 16:30S 33°37' E 151°40'815.2
2018-Feb-12 15:57S 33°31' E 151°48'1415.7
2018-Feb-12 15:04S 33°22' E 152°00'216.6
2018-Feb-12 14:58S 33°21' E 152°02'1018.3
2018-Feb-12 14:26S 33°15' E 152°11'818.4
2018-Feb-12 14:00S 33°10' E 152°18'918.3
2018-Feb-12 13:30S 33°03' E 152°26'918.2
2018-Feb-12 13:00S 32°58' E 152°34'918.4
2018-Feb-12 12:30S 32°51' E 152°42'918.6
2018-Feb-12 12:00S 32°45' E 152°50'12785.4
2018-Feb-12 12:00S 32°48' E 152°36'2144.1 130 / 101011.127.0 25.024.325.6
2018-Feb-12 11:30S 32°39' E 152°59'26518.7
2018-Feb-11 21:22S 29°45' E 156°52'617.6
2018-Feb-11 21:00S 29°40' E 156°57'1317.8
2018-Feb-11 20:16S 29°32' E 157°09'15418.6
2018-Feb-11 12:00S 27°48' E 159°18'48617.6 040 / 41009.210.8 24.023.726.5
2018-Feb-10 08:22S 22°30' E 166°05'616.6
2018-Feb-10 08:00S 22°26' E 166°10'816.9
2018-Feb-10 07:30S 22°20' E 166°16'714.4
2018-Feb-10 06:59S 22°15' E 166°22'3 7.3
2018-Feb-10 06:30S 22°16' E 166°26'0 0.2
2018-Feb-10 05:57S 22°16' E 166°26'0 0.0
2018-Feb-10 05:27S 22°16' E 166°26'0 0.0
2018-Feb-10 04:57S 22°16' E 166°26'0 0.0
2018-Feb-10 04:27S 22°16' E 166°26'0 0.0
2018-Feb-10 03:57S 22°16' E 166°26'0 0.0
2018-Feb-10 03:27S 22°16' E 166°26'0 0.0
2018-Feb-10 02:57S 22°16' E 166°26'0 0.0
2018-Feb-10 02:27S 22°16' E 166°26'0 0.0
2018-Feb-10 01:57S 22°16' E 166°26'0 0.0
2018-Feb-10 01:27S 22°16' E 166°26'0 0.0
2018-Feb-10 00:57S 22°16' E 166°26'0 0.0
2018-Feb-10 00:27S 22°16' E 166°26'0 0.0
2018-Feb-09 23:57S 22°16' E 166°26'0 0.0
2018-Feb-09 23:27S 22°16' E 166°26'0 0.0
2018-Feb-09 22:57S 22°16' E 166°26'0 0.0
2018-Feb-09 22:45S 22°16' E 166°26'1 0.5
2018-Feb-09 21:31S 22°15' E 166°25'1010.3
2018-Feb-09 20:30S 22°22' E 166°34'  
Track history (hours):
 
Tides and Currents Weather Stations Pressure Air Temp Water Temp Dewpoint Dewpoint Depression Visibility Wind Speed Wind Dir Waves Ship Positions

Sun Princess

Operator: Princess Cruises

Last reported at 2018-Feb-18 19:54 UTC. Time now 2018-Feb-19 10:18 UTC.
Position S 33°52' E 151°13'.

Length 261.3 m; beam 32.3 m; draft 8.1 m.

Type: Passenger vessel. MMSI: 310438000.

Date/timePositionNaut miles runAvg speedWind from/ knotsBaromVisibWave heightAir tempDewpointWater temp
2018-Feb-18 19:54S 33°52' E 151°13'0 0.0
2018-Feb-18 19:19S 33°52' E 151°13'1 3.1
2018-Feb-18 18:51S 33°51' E 151°14'3 9.9
2018-Feb-18 18:30S 33°50' E 151°18'5 9.4
2018-Feb-18 18:00S 33°53' E 151°22'612.6
2018-Feb-18 17:30S 33°59' E 151°23'713.6
2018-Feb-18 17:00S 34°06' E 151°22'712.9
2018-Feb-18 16:30S 34°12' E 151°21'912.6
2018-Feb-18 15:49S 34°21' E 151°21'1213.1
2018-Feb-18 14:55S 34°32' E 151°17'612.8
2018-Feb-18 14:29S 34°38' E 151°14'3213.2
2018-Feb-18 12:03S 35°09' E 151°06'213.4
2018-Feb-18 11:53S 35°11' E 151°06'613.5
2018-Feb-18 11:28S 35°17' E 151°04'813.5
2018-Feb-18 10:54S 35°24' E 151°01'1217.4
2018-Feb-18 10:12S 35°35' E 150°57'417.7
2018-Feb-18 10:00S 35°39' E 150°56'917.7
2018-Feb-18 09:30S 35°47' E 150°53'917.8
2018-Feb-18 09:00S 35°56' E 150°50'918.1
2018-Feb-18 08:30S 36°05' E 150°47'11917.0
2018-Feb-18 01:30S 37°59' E 150°06'13918.5
2018-Feb-17 18:00S 40°12' E 149°12'19416.9 280 / 271011.110.8 18.017.219.8
2018-Feb-17 06:31S 43°15' E 147°45'217.5
2018-Feb-17 06:26S 43°14' E 147°43'2 0.1
2018-Feb-16 06:20S 43°13' E 147°41'144 7.8
2018-Feb-15 11:56S 40°53' E 148°28'1117.1
2018-Feb-15 11:18S 40°45' E 148°19'517.3
2018-Feb-15 11:00S 40°42' E 148°13'815.9
2018-Feb-15 10:30S 40°40' E 148°03'816.6
2018-Feb-15 10:00S 40°39' E 147°52'917.6
2018-Feb-15 09:30S 40°40' E 147°41'918.1
2018-Feb-15 09:00S 40°42' E 147°29'918.5
2018-Feb-15 08:30S 40°45' E 147°17'918.4
2018-Feb-15 08:00S 40°47' E 147°05'918.4
2018-Feb-15 07:30S 40°49' E 146°54'918.2
2018-Feb-15 07:00S 40°51' E 146°42'918.2
2018-Feb-15 06:30S 40°54' E 146°30'918.0
2018-Feb-15 06:00S 40°56' E 146°19'917.2
2018-Feb-15 05:30S 40°58' E 146°08'815.5
2018-Feb-15 05:00S 41°01' E 145°58'3 4.0
2018-Feb-15 04:11S 41°03' E 145°55'0 0.0
2018-Feb-15 03:50S 41°03' E 145°55'0 0.0
2018-Feb-15 02:53S 41°03' E 145°55'0 0.0
2018-Feb-15 02:29S 41°03' E 145°55'0 0.0
2018-Feb-15 01:59S 41°03' E 145°55'0 0.0
2018-Feb-15 01:29S 41°03' E 145°55'0 0.0
2018-Feb-15 00:59S 41°03' E 145°55'0 0.0
2018-Feb-15 00:29S 41°03' E 145°55'0 0.0
2018-Feb-14 23:59S 41°03' E 145°55'0 0.1
2018-Feb-14 23:29S 41°03' E 145°55'0 0.1
2018-Feb-14 22:56S 41°03' E 145°55'0 0.0
2018-Feb-14 22:30S 41°03' E 145°55'1 1.3
2018-Feb-14 22:01S 41°03' E 145°56'2 4.5
2018-Feb-14 21:28S 41°01' E 145°58'612.6
2018-Feb-14 21:00S 40°57' E 146°03'816.6
2018-Feb-14 20:30S 40°50' E 146°09'816.0
2018-Feb-14 20:00S 40°44' E 146°15'815.8
2018-Feb-14 19:30S 40°38' E 146°22'815.6
2018-Feb-14 19:00S 40°31' E 146°27'816.3
2018-Feb-14 18:30S 40°24' E 146°32'816.0
2018-Feb-14 18:00S 40°17' E 146°38'714.6
2018-Feb-14 17:30S 40°11' E 146°43'713.9
2018-Feb-14 17:01S 40°05' E 146°48'18311.6
2018-Feb-14 01:17S 38°05' E 149°46'619.6
2018-Feb-14 00:59S 38°00' E 149°50'919.4
2018-Feb-14 00:30S 37°53' E 149°58'1019.2
2018-Feb-14 00:00S 37°46' E 150°05'243 8.2
2018-Feb-12 18:11S 33°50' E 151°19'312.2
2018-Feb-12 17:58S 33°50' E 151°22'612.3
2018-Feb-12 17:30S 33°46' E 151°28'714.1
2018-Feb-12 17:00S 33°41' E 151°34'714.0
2018-Feb-12 16:30S 33°37' E 151°40'815.2
2018-Feb-12 15:57S 33°31' E 151°48'1415.7
2018-Feb-12 15:04S 33°22' E 152°00'216.6
2018-Feb-12 14:58S 33°21' E 152°02'1018.3
2018-Feb-12 14:26S 33°15' E 152°11'818.4
2018-Feb-12 14:00S 33°10' E 152°18'918.3
2018-Feb-12 13:30S 33°03' E 152°26'918.2
2018-Feb-12 13:00S 32°58' E 152°34'918.4
2018-Feb-12 12:30S 32°51' E 152°42'918.6
2018-Feb-12 12:00S 32°45' E 152°50'12785.4
2018-Feb-12 12:00S 32°48' E 152°36'2144.1 130 / 101011.127.0 25.024.325.6
2018-Feb-12 11:30S 32°39' E 152°59'26518.7
2018-Feb-11 21:22S 29°45' E 156°52'617.6
2018-Feb-11 21:00S 29°40' E 156°57'1317.8
2018-Feb-11 20:16S 29°32' E 157°09'15418.6
2018-Feb-11 12:00S 27°48' E 159°18'48617.6 040 / 41009.210.8 24.023.726.5
2018-Feb-10 08:22S 22°30' E 166°05'616.6
2018-Feb-10 08:00S 22°26' E 166°10'816.9
2018-Feb-10 07:30S 22°20' E 166°16'714.4
2018-Feb-10 06:59S 22°15' E 166°22'3 7.3
2018-Feb-10 06:30S 22°16' E 166°26'0 0.2
2018-Feb-10 05:57S 22°16' E 166°26'0 0.0
2018-Feb-10 05:27S 22°16' E 166°26'0 0.0
2018-Feb-10 04:57S 22°16' E 166°26'0 0.0
2018-Feb-10 04:27S 22°16' E 166°26'0 0.0
2018-Feb-10 03:57S 22°16' E 166°26'0 0.0
2018-Feb-10 03:27S 22°16' E 166°26'0 0.0
2018-Feb-10 02:57S 22°16' E 166°26'0 0.0
2018-Feb-10 02:27S 22°16' E 166°26'0 0.0
2018-Feb-10 01:57S 22°16' E 166°26'0 0.0
2018-Feb-10 01:27S 22°16' E 166°26'0 0.0
2018-Feb-10 00:57S 22°16' E 166°26'0 0.0
2018-Feb-10 00:27S 22°16' E 166°26'0 0.0
2018-Feb-09 23:57S 22°16' E 166°26'0 0.0
2018-Feb-09 23:27S 22°16' E 166°26'0 0.0
2018-Feb-09 22:57S 22°16' E 166°26'0 0.0
2018-Feb-09 22:45S 22°16' E 166°26'1 0.5
2018-Feb-09 21:31S 22°15' E 166°25'1010.3
2018-Feb-09 20:30S 22°22' E 166°34'  

Dump ship's entire track history